Friday, February 24, 2017, 12:05 PM EST

KW99, Petersburg, Grant County Airport

Location: Petersburg, WV, United States Lat: 38.983
Local Time: 12:05 PM EST (17:05 GMT) Lon: -79.133
Time Zone: US/Eastern Elev: 961 ft

Show me the last for .
Show Decoded

2017-02-24 11:30 METAR KW99 241630Z AUTO 21008KT 10SM SCT080 24/11 A2984 RMK AO2 T02430106 =
2017-02-24 11:10 METAR KW99 241610Z AUTO 16007KT 10SM SCT080 24/11 A2985 RMK AO2 T02350105 =
2017-02-24 10:50 METAR KW99 241550Z AUTO 18007KT 10SM CLR 23/11 A2985 RMK AO2 T02290113 =
2017-02-24 10:30 METAR KW99 241530Z AUTO 00000KT 10SM CLR 20/12 A2986 RMK AO2 T01980123 =
2017-02-24 10:10 METAR KW99 241510Z AUTO 00000KT 10SM SCT080 18/13 A2987 RMK AO2 T01750129 =
2017-02-24 09:50 METAR KW99 241450Z AUTO 00000KT 10SM BKN080 16/12 A2988 RMK AO2 T01580121 =
2017-02-24 09:30 METAR KW99 241430Z AUTO 00000KT 10SM OVC080 15/12 A2988 RMK AO2 T01470116 =
2017-02-24 09:10 METAR KW99 241410Z AUTO 00000KT 10SM OVC080 13/11 A2989 RMK AO2 T01340113 =
2017-02-24 08:50 METAR KW99 241350Z AUTO 00000KT 10SM BKN080 12/10 A2989 RMK AO2 T01230101 =
2017-02-24 08:30 METAR KW99 241330Z AUTO 00000KT 10SM SCT080 11/10 A2989 RMK AO2 T01060095 =
2017-02-24 08:10 METAR KW99 241310Z AUTO 00000KT 10SM SCT080 10/09 A2989 RMK AO2 LTG DSNT N
                 T01000088 =
2017-02-24 07:50 METAR KW99 241250Z AUTO 00000KT 10SM CLR 09/08 A2989 RMK AO2 T00910084 =
2017-02-24 07:30 METAR KW99 241230Z AUTO 00000KT 10SM CLR 08/08 A2989 RMK AO2 T00810075 =
2017-02-24 07:10 METAR KW99 241210Z AUTO 00000KT 10SM CLR 08/07 A2988 RMK AO2 T00750070 =
2017-02-24 06:50 METAR KW99 241150Z AUTO 00000KT 7SM CLR 08/08 A2988 RMK AO2 LTG DSNT N AND NW
                 T00790075 10106 20074 =
2017-02-24 06:30 METAR KW99 241130Z AUTO 00000KT 10SM SCT090 08/07 A2988 RMK AO2 LTG DSNT N AND
                 NW T00790074 =
2017-02-24 06:10 METAR KW99 241110Z AUTO 00000KT 10SM BKN090 08/08 A2988 RMK AO2 T00840077 =
2017-02-24 05:50 METAR KW99 241050Z AUTO 00000KT 10SM OVC090 09/08 A2988 RMK AO2 LTG DSNT NW
                 T00850078 =
2017-02-24 05:30 METAR KW99 241030Z AUTO 00000KT 10SM OVC090 08/08 A2988 RMK AO2 T00810075 =
2017-02-24 05:10 METAR KW99 241010Z AUTO 00000KT 10SM OVC090 08/08 A2988 RMK AO2 T00840076 =
2017-02-24 04:50 METAR KW99 240950Z AUTO 00000KT 10SM BKN090 08/08 A2987 RMK AO2 T00810075 =
2017-02-24 04:30 METAR KW99 240930Z AUTO 00000KT 10SM SCT090 08/07 A2988 RMK AO2 LTG DSNT NW
                 T00750070 =
2017-02-24 04:10 METAR KW99 240910Z AUTO 00000KT 10SM CLR 08/07 A2987 RMK AO2 T00780071 =
2017-02-24 03:50 METAR KW99 240850Z AUTO 00000KT 10SM CLR 09/08 A2987 RMK AO2 T00850077 =
2017-02-24 03:30 METAR KW99 240830Z AUTO 00000KT 10SM CLR 08/07 A2987 RMK AO2 T00820074 =
2017-02-24 03:10 METAR KW99 240810Z AUTO 00000KT 10SM CLR 09/08 A2987 RMK AO2 T00870078 =
2017-02-24 02:50 METAR KW99 240750Z AUTO 00000KT 10SM CLR 09/08 A2987 RMK AO2 T00850078 =
2017-02-24 02:30 METAR KW99 240730Z AUTO 00000KT 10SM CLR 09/08 A2988 RMK AO2 T00900079 =
2017-02-24 02:10 METAR KW99 240710Z AUTO 00000KT 10SM CLR 09/08 A2988 RMK AO2 T00890079 =
2017-02-24 01:50 METAR KW99 240650Z AUTO 00000KT 10SM CLR 09/08 A2987 RMK AO2 T00940083 =
2017-02-24 01:30 METAR KW99 240630Z AUTO 30003KT 10SM CLR 10/09 A2987 RMK AO2 T00990086 =
2017-02-24 01:10 METAR KW99 240610Z AUTO 00000KT 10SM CLR 11/09 A2987 RMK AO2 T01050088 =
2017-02-24 00:50 METAR KW99 240550Z AUTO 00000KT 10SM CLR 10/09 A2988 RMK AO2 T01000087 10218
                 20100 402530085 =
2017-02-24 00:30 METAR KW99 240530Z AUTO 00000KT 10SM CLR 12/09 A2988 RMK AO2 T01160094 =
2017-02-24 00:10 METAR KW99 240510Z AUTO 00000KT 10SM CLR 11/09 A2988 RMK AO2 T01080089 =
2017-02-23 23:50 METAR KW99 240450Z AUTO 00000KT 10SM CLR 10/09 A2988 RMK AO2 LTG DSNT N
                 T01040087 =
2017-02-23 23:30 METAR KW99 240430Z AUTO 00000KT 10SM CLR 11/09 A2988 RMK AO2 T01100093 =
2017-02-23 23:10 METAR KW99 240410Z AUTO 00000KT 10SM CLR 11/09 A2988 RMK AO2 T01100092 =
2017-02-23 22:50 METAR KW99 240350Z AUTO 00000KT 10SM CLR 11/09 A2988 RMK AO2 T01120092 =
2017-02-23 22:30 METAR KW99 240330Z AUTO 00000KT 10SM CLR 12/09 A2988 RMK AO2 T01180093 =
2017-02-23 22:10 METAR KW99 240310Z AUTO 00000KT 10SM CLR 12/09 A2988 RMK AO2 T01220094 =
2017-02-23 21:50 METAR KW99 240250Z AUTO 00000KT 10SM SCT100 13/10 A2987 RMK AO2 T01330100 =
2017-02-23 21:30 METAR KW99 240230Z AUTO 00000KT 10SM BKN100 12/10 A2987 RMK AO2 T01220095 =
2017-02-23 21:10 METAR KW99 240210Z AUTO 00000KT 10SM CLR 14/10 A2987 RMK AO2 T01410098 =
2017-02-23 20:50 METAR KW99 240150Z AUTO 00000KT 10SM CLR 15/10 A2986 RMK AO2 T01490100 =
2017-02-23 20:30 METAR KW99 240130Z AUTO 00000KT 10SM CLR 15/10 A2986 RMK AO2 T01480099 =
2017-02-23 20:10 METAR KW99 240110Z AUTO 00000KT 10SM CLR 16/10 A2985 RMK AO2 T01560099 =
2017-02-23 19:50 METAR KW99 240050Z AUTO 00000KT 10SM CLR 17/10 A2985 RMK AO2 T01720098 =
2017-02-23 19:30 METAR KW99 240030Z AUTO 17005KT 10SM SCT100 19/10 A2985 RMK AO2 T01870098 =
2017-02-23 19:10 METAR KW99 240010Z AUTO 16004KT 10SM OVC100 21/10 A2985 RMK AO2 T02070097 =
2017-02-23 18:50 METAR KW99 232350Z AUTO 32004KT 10SM SCT100 21/10 A2985 RMK AO2 T02140098 10253
                 20214 =
2017-02-23 18:30 METAR KW99 232330Z AUTO 18006KT 10SM SCT110 22/10 A2983 RMK AO2 T02160098 =
2017-02-23 18:10 METAR KW99 232310Z AUTO 19005KT 10SM BKN110 23/10 A2982 RMK AO2 T02270096 =
2017-02-23 17:50 METAR KW99 232250Z AUTO 17003KT 10SM OVC100 23/10 A2982 RMK AO2 T02320095 =
2017-02-23 17:30 METAR KW99 232230Z AUTO 00000KT 10SM OVC100 23/10 A2981 RMK AO2 T02320100 =
2017-02-23 17:10 METAR KW99 232210Z AUTO 23004KT 10SM BKN100 24/10 A2980 RMK AO2 T02360095 =
2017-02-23 16:50 METAR KW99 232150Z AUTO 26006KT 10SM SCT100 24/10 A2980 RMK AO2 T02380095 =
2017-02-23 16:30 METAR KW99 232130Z AUTO 24006KT 10SM CLR 24/09 A2980 RMK AO2 T02430093
2017-02-23 16:10 METAR KW99 232110Z AUTO 21005KT 10SM CLR 24/10 A2980 RMK AO2 T02400098 =
2017-02-23 15:50 METAR KW99 232050Z AUTO 19005KT 10SM SCT070 SCT090 24/10 A2979 RMK AO2 T02430096
                 =
2017-02-23 15:30 METAR KW99 232030Z AUTO 25003KT 10SM SCT070 25/10 A2979 RMK AO2 T02470103 =
2017-02-23 15:10 METAR KW99 232010Z AUTO 24009G16KT 10SM CLR 25/10 A2979 RMK AO2 T02530104 =
2017-02-23 14:50 METAR KW99 231950Z AUTO 20008KT 10SM SCT085 25/10 A2979 RMK AO2 T02490104 =
2017-02-23 14:30 METAR KW99 231930Z AUTO 18004KT 10SM BKN085 25/10 A2979 RMK AO2 T02500102 =
2017-02-23 14:10 METAR KW99 231910Z AUTO 30003KT 10SM SCT055 BKN085 24/11 A2980 RMK AO2 T02390110
                 =
2017-02-23 13:50 METAR KW99 231850Z AUTO 32006KT 10SM SCT055 BKN085 24/11 A2980 RMK AO2 T02370113
                 =
2017-02-23 13:30 METAR KW99 231830Z AUTO 25006G09KT 10SM SCT055 SCT085 24/11 A2981 RMK AO2
                 T02370110 =
2017-02-23 13:10 METAR KW99 231810Z AUTO 29009KT 10SM SCT055 BKN085 23/12 A2982 RMK AO2 T02310120
                 =
2017-02-23 12:50 METAR KW99 231750Z AUTO 29009KT 10SM BKN060 OVC085 23/12 A2982 RMK AO2 T02300121
                 10236 20085 =
2017-02-23 12:30 METAR KW99 231730Z AUTO 31005KT 10SM BKN060 23/12 A2983 RMK AO2 T02300121 =
2017-02-23 12:10 METAR KW99 231710Z AUTO 31006KT 10SM SCT060 BKN080 22/12 A2984 RMK AO2 T02240120
                 =

Support USWX by starting your Amazon purchase here.